createdAt,value
2022-08-07T00:01:43.284Z,7.33
2022-08-07T00:04:29.539Z,6.97
2022-08-07T00:07:40.346Z,7.33
2022-08-07T00:10:57.515Z,7.87
2022-08-07T00:14:05.313Z,7.97
2022-08-07T00:17:11.173Z,7.93
2022-08-07T00:20:29.985Z,8.50
2022-08-07T00:23:43.244Z,8.13
2022-08-07T00:27:06.347Z,7.90
2022-08-07T00:30:27.643Z,8.80
2022-08-07T00:33:35.771Z,8.23
2022-08-07T00:36:42.901Z,8.97
2022-08-07T00:39:54.549Z,8.37
2022-08-07T00:43:04.054Z,8.63
2022-08-07T00:46:17.603Z,8.57
2022-08-07T00:49:24.789Z,8.27
2022-08-07T00:52:51.097Z,8.27
2022-08-07T00:56:03.106Z,8.70
2022-08-07T00:59:13.562Z,8.83
2022-08-07T01:02:28.341Z,9.13
2022-08-07T01:05:36.554Z,9.33
2022-08-07T01:08:52.948Z,9.60
2022-08-07T01:12:09.099Z,10.07
2022-08-07T01:15:35.846Z,9.33
2022-08-07T01:18:57.338Z,8.97
2022-08-07T01:22:08.869Z,10.00
2022-08-07T01:25:54.422Z,10.33
2022-08-07T01:28:51.285Z,10.77
2022-08-07T01:32:12.236Z,10.13
2022-08-07T01:35:20.944Z,10.07
2022-08-07T01:38:35.297Z,11.57
2022-08-07T01:42:07.232Z,11.60
2022-08-07T01:45:17.991Z,10.80
2022-08-07T01:48:30.807Z,10.20
2022-08-07T01:52:01.618Z,10.43
2022-08-07T01:55:22.214Z,9.17
2022-08-07T01:58:40.161Z,8.07
2022-08-07T02:02:11.957Z,8.83
2022-08-07T02:05:48.169Z,7.53
2022-08-07T02:09:51.958Z,7.87
2022-08-07T02:12:51.190Z,7.87
2022-08-07T02:16:07.763Z,7.33
2022-08-07T02:20:06.918Z,7.37
2022-08-07T02:22:54.929Z,6.23
2022-08-07T02:26:31.509Z,6.77
2022-08-07T02:29:36.839Z,6.27
2022-08-07T02:33:03.882Z,6.27
2022-08-07T02:36:29.028Z,5.80
2022-08-07T02:40:11.970Z,6.23
2022-08-07T02:43:12.077Z,6.53
2022-08-07T02:46:26.602Z,7.07
2022-08-07T02:49:57.752Z,7.40
2022-08-07T02:53:10.920Z,7.23
2022-08-07T02:56:22.605Z,7.67
2022-08-07T02:59:31.083Z,7.73
2022-08-07T03:02:54.525Z,7.30
2022-08-07T03:06:04.198Z,7.70
2022-08-07T03:09:43.294Z,7.57
2022-08-07T03:12:53.289Z,8.63
2022-08-07T03:16:03.021Z,9.87
2022-08-07T03:19:15.377Z,9.57
2022-08-07T03:22:23.103Z,9.73
2022-08-07T03:25:41.485Z,10.30
2022-08-07T03:28:51.603Z,10.17
2022-08-07T03:32:00.147Z,9.50
2022-08-07T03:35:17.618Z,9.67
2022-08-07T03:38:29.437Z,10.13
2022-08-07T03:41:42.388Z,9.63
2022-08-07T03:44:57.835Z,10.20
2022-08-07T03:48:09.850Z,9.80
2022-08-07T03:51:21.910Z,9.53
2022-08-07T03:54:54.776Z,10.07
2022-08-07T03:58:33.429Z,9.47
2022-08-07T04:01:32.321Z,9.57
2022-08-07T04:04:39.497Z,8.80
2022-08-07T04:07:52.319Z,9.33
2022-08-07T04:12:21.074Z,9.77
2022-08-07T04:14:37.534Z,9.53
2022-08-07T04:18:30.648Z,9.67
2022-08-07T04:21:14.004Z,8.47
2022-08-07T04:24:33.807Z,9.13
2022-08-07T04:27:44.221Z,9.40
2022-08-07T04:30:58.863Z,9.40
2022-08-07T04:34:16.438Z,9.80
2022-08-07T04:37:26.629Z,9.33
2022-08-07T04:40:44.059Z,10.10
2022-08-07T04:44:12.542Z,9.27
2022-08-07T04:47:58.842Z,9.53
2022-08-07T04:51:09.260Z,8.63
2022-08-07T04:54:36.972Z,9.30
2022-08-07T04:58:11.442Z,9.80
2022-08-07T05:01:30.039Z,8.60
2022-08-07T05:05:00.242Z,9.50
2022-08-07T05:08:15.469Z,9.17
2022-08-07T05:11:27.270Z,9.30
2022-08-07T05:15:04.487Z,9.90
2022-08-07T05:18:19.617Z,10.53
2022-08-07T05:22:00.612Z,9.27
2022-08-07T05:25:00.516Z,8.87
2022-08-07T05:28:21.075Z,9.90
2022-08-07T05:31:38.757Z,8.77
2022-08-07T05:34:51.857Z,9.47
2022-08-07T05:38:08.954Z,8.80
2022-08-07T05:41:18.458Z,9.50
2022-08-07T05:44:31.569Z,10.07
2022-08-07T05:48:01.994Z,8.60
2022-08-07T05:51:18.370Z,8.37
2022-08-07T05:54:30.695Z,8.40
2022-08-07T05:57:56.164Z,8.33
2022-08-07T06:01:04.941Z,8.13
2022-08-07T06:04:18.378Z,7.93
2022-08-07T06:08:13.647Z,7.70
2022-08-07T06:10:54.965Z,7.70
2022-08-07T06:14:12.719Z,7.97
2022-08-07T06:17:32.079Z,8.73
2022-08-07T06:20:50.712Z,10.70
2022-08-07T06:24:46.053Z,9.33
2022-08-07T06:28:01.791Z,9.27
2022-08-07T06:31:11.547Z,9.13
2022-08-07T06:34:20.530Z,8.40
2022-08-07T06:37:43.560Z,8.70
2022-08-07T06:40:56.352Z,7.30
2022-08-07T06:44:10.871Z,7.27
2022-08-07T06:47:18.520Z,7.37
2022-08-07T06:50:30.402Z,7.07
2022-08-07T06:55:29.001Z,6.13
2022-08-07T06:57:14.872Z,5.13
2022-08-07T07:00:24.035Z,5.83
2022-08-07T07:03:47.658Z,6.27
2022-08-07T07:07:00.334Z,5.37
2022-08-07T07:10:13.880Z,5.73
2022-08-07T07:13:55.680Z,5.70
2022-08-07T07:17:10.638Z,5.83
2022-08-07T07:20:27.060Z,5.70
2022-08-07T07:24:08.127Z,5.83
2022-08-07T07:27:06.543Z,5.60
2022-08-07T07:30:32.419Z,5.43
2022-08-07T07:33:43.309Z,5.20
2022-08-07T07:36:57.300Z,5.40
2022-08-07T07:40:26.124Z,5.87
2022-08-07T07:43:47.836Z,5.70
2022-08-07T07:47:13.988Z,6.47
2022-08-07T07:50:36.370Z,5.63
2022-08-07T07:53:52.465Z,5.93
2022-08-07T07:57:03.345Z,5.90
2022-08-07T08:00:20.779Z,5.00
2022-08-07T08:04:09.523Z,5.10
2022-08-07T08:06:57.156Z,5.07
2022-08-07T08:10:14.970Z,4.60
2022-08-07T08:13:52.744Z,4.63
2022-08-07T08:17:55.283Z,4.37
2022-08-07T08:20:36.546Z,4.13
2022-08-07T08:23:58.904Z,4.40
2022-08-07T08:27:09.793Z,4.37
2022-08-07T08:30:17.446Z,4.63
2022-08-07T08:33:32.945Z,4.13
2022-08-07T08:36:46.262Z,4.53
2022-08-07T08:39:58.340Z,3.95
2022-08-07T08:43:14.037Z,4.37
2022-08-07T08:46:32.378Z,4.53
2022-08-07T08:50:04.606Z,4.53
2022-08-07T08:53:19.514Z,3.70
2022-08-07T08:56:30.167Z,4.53
2022-08-07T08:59:48.415Z,4.33
2022-08-07T09:03:03.908Z,3.60
2022-08-07T09:06:25.050Z,4.33
2022-08-07T09:09:48.386Z,6.20
2022-08-07T09:13:14.836Z,5.87
2022-08-07T09:16:30.592Z,5.70
2022-08-07T09:19:57.862Z,4.20
2022-08-07T09:24:30.376Z,2.60
2022-08-07T09:26:50.956Z,2.63
2022-08-07T09:30:08.250Z,3.30
2022-08-07T09:33:53.176Z,3.40
2022-08-07T09:37:03.395Z,3.13
2022-08-07T09:40:23.909Z,4.00
2022-08-07T09:44:05.952Z,3.45
2022-08-07T09:47:49.577Z,3.72
2022-08-07T09:50:56.391Z,3.47
2022-08-07T09:54:11.656Z,3.20
2022-08-07T09:57:54.193Z,3.30
2022-08-07T10:01:14.715Z,2.47
2022-08-07T10:04:38.253Z,3.17
2022-08-07T10:08:01.073Z,3.53
2022-08-07T10:11:59.221Z,2.90
2022-08-07T10:15:21.308Z,2.97
2022-08-07T10:18:44.835Z,3.05
2022-08-07T10:22:16.237Z,2.47
2022-08-07T10:25:43.077Z,2.38
2022-08-07T10:29:06.779Z,2.40
2022-08-07T10:32:51.673Z,2.97
2022-08-07T10:36:17.286Z,2.63
2022-08-07T10:39:41.567Z,2.35
2022-08-07T10:43:03.367Z,2.42
2022-08-07T10:46:16.674Z,2.28
2022-08-07T10:49:49.289Z,2.17
2022-08-07T10:53:08.879Z,1.70
2022-08-07T10:56:36.471Z,2.10
2022-08-07T10:59:56.258Z,1.80
2022-08-07T11:03:11.192Z,1.73
2022-08-07T11:06:29.356Z,1.80
2022-08-07T11:10:10.185Z,1.90
2022-08-07T11:14:43.717Z,2.15
2022-08-07T11:16:54.820Z,1.70
2022-08-07T11:20:09.777Z,1.73
2022-08-07T11:23:30.900Z,2.07
2022-08-07T11:26:50.543Z,2.25
2022-08-07T11:30:17.516Z,2.13
2022-08-07T11:33:59.852Z,2.17
2022-08-07T11:37:06.750Z,2.20
2022-08-07T11:40:31.753Z,2.08
2022-08-07T11:44:10.967Z,1.77
2022-08-07T11:47:38.946Z,2.17
2022-08-07T11:51:22.869Z,2.20
2022-08-07T11:54:59.497Z,1.85
2022-08-07T11:58:20.967Z,2.20
2022-08-07T12:01:59.946Z,2.17
2022-08-07T12:05:28.317Z,1.92
2022-08-07T12:08:53.273Z,1.90
2022-08-07T12:12:12.142Z,1.60
2022-08-07T12:15:46.307Z,1.90
2022-08-07T12:18:58.837Z,2.03
2022-08-07T12:22:38.781Z,2.38
2022-08-07T12:26:06.139Z,2.50
2022-08-07T12:29:37.776Z,2.38
2022-08-07T12:32:55.647Z,2.35
2022-08-07T12:36:06.117Z,1.92
2022-08-07T12:39:44.859Z,2.33
2022-08-07T12:42:54.954Z,2.28
2022-08-07T12:46:26.224Z,2.00
2022-08-07T12:49:52.928Z,2.25
2022-08-07T12:53:17.878Z,2.15
2022-08-07T12:56:32.471Z,2.20
2022-08-07T12:59:54.255Z,2.30
2022-08-07T13:03:54.895Z,2.42
2022-08-07T13:07:09.604Z,2.00
2022-08-07T13:10:52.132Z,2.33
2022-08-07T13:14:06.115Z,2.05
2022-08-07T13:17:21.205Z,1.95
2022-08-07T13:20:38.390Z,2.10
2022-08-07T13:24:01.086Z,2.22
2022-08-07T13:27:20.951Z,2.30
2022-08-07T13:30:41.001Z,2.38
2022-08-07T13:34:29.889Z,2.30
2022-08-07T13:37:31.246Z,1.95
2022-08-07T13:40:50.218Z,2.10
2022-08-07T13:44:10.308Z,1.90
2022-08-07T13:47:25.263Z,1.98
2022-08-07T13:50:55.627Z,1.80
2022-08-07T13:54:03.828Z,2.45
2022-08-07T13:57:24.261Z,1.90
2022-08-07T14:00:39.520Z,1.90
2022-08-07T14:04:08.036Z,2.10
2022-08-07T14:07:15.737Z,1.73
2022-08-07T14:10:28.009Z,2.03
2022-08-07T14:13:38.458Z,2.17
2022-08-07T14:16:54.006Z,2.10
2022-08-07T14:20:40.840Z,1.55
2022-08-07T14:24:00.108Z,1.80
2022-08-07T14:28:09.460Z,2.05
2022-08-07T14:30:34.209Z,1.90
2022-08-07T14:33:44.919Z,1.90
2022-08-07T14:36:56.181Z,1.70
2022-08-07T14:40:16.564Z,1.70
2022-08-07T14:43:57.526Z,1.63
2022-08-07T14:47:14.253Z,1.70
2022-08-07T14:50:24.490Z,1.60
2022-08-07T14:54:03.680Z,1.55
2022-08-07T14:57:03.492Z,1.75
2022-08-07T15:00:11.290Z,1.83
2022-08-07T15:03:52.225Z,1.75
2022-08-07T15:07:00.808Z,1.90
2022-08-07T15:10:11.213Z,1.70
2022-08-07T15:13:22.680Z,1.83
2022-08-07T15:16:40.453Z,2.30
2022-08-07T15:25:16.380Z,1.67
2022-08-07T15:27:12.777Z,1.63
2022-08-07T15:30:22.424Z,1.95
2022-08-07T15:37:06.691Z,1.65
2022-08-07T15:40:34.633Z,1.27
2022-08-07T15:43:53.450Z,1.42
2022-08-07T15:54:12.020Z,1.88
2022-08-07T15:57:47.867Z,1.92
2022-08-07T16:00:54.560Z,1.77
2022-08-07T16:04:06.383Z,1.73
2022-08-07T16:08:32.055Z,1.60
2022-08-07T16:10:59.620Z,1.60
2022-08-07T16:14:17.290Z,1.60
2022-08-07T16:18:01.521Z,1.40
2022-08-07T16:22:01.304Z,1.45
2022-08-07T16:24:37.840Z,1.45
2022-08-07T16:27:57.189Z,1.25
2022-08-07T16:31:51.983Z,1.35
2022-08-07T16:34:50.414Z,1.60
2022-08-07T16:38:14.674Z,1.52
2022-08-07T16:41:54.437Z,1.40
2022-08-07T16:46:47.476Z,1.60
2022-08-07T16:50:27.788Z,1.35
2022-08-07T16:54:02.757Z,1.23
2022-08-07T16:58:00.848Z,1.35
2022-08-07T17:01:07.882Z,1.27
2022-08-07T17:04:24.325Z,1.55
2022-08-07T17:07:55.743Z,1.13
2022-08-07T17:11:14.254Z,1.20
2022-08-07T17:14:28.357Z,1.45
2022-08-07T17:17:46.915Z,1.48
2022-08-07T17:20:55.206Z,1.25
2022-08-07T17:24:23.474Z,1.60
2022-08-07T17:27:51.124Z,1.30
2022-08-07T17:31:15.997Z,1.50
2022-08-07T17:34:35.463Z,1.40
2022-08-07T17:38:06.615Z,1.40
2022-08-07T17:42:03.955Z,1.53
2022-08-07T17:45:01.396Z,1.63
2022-08-07T17:48:13.902Z,1.75
2022-08-07T17:51:59.870Z,1.40
2022-08-07T17:55:12.537Z,1.57
2022-08-07T17:58:30.820Z,1.40
2022-08-07T18:01:48.436Z,1.70
2022-08-07T18:05:01.110Z,1.30
2022-08-07T18:08:34.752Z,1.33
2022-08-07T18:12:08.089Z,1.40
2022-08-07T18:15:22.899Z,1.40
2022-08-07T18:21:00.915Z,1.33
2022-08-07T18:22:14.964Z,1.50
2022-08-07T18:25:40.097Z,1.37
2022-08-07T18:30:07.660Z,1.70
2022-08-07T18:32:48.061Z,1.23
2022-08-07T18:36:08.146Z,1.30
2022-08-07T18:40:05.514Z,1.30
2022-08-07T18:43:03.625Z,1.70
2022-08-07T18:46:27.496Z,1.60
2022-08-07T18:50:32.778Z,1.80
2022-08-07T18:53:17.507Z,1.40
2022-08-07T18:56:39.149Z,1.40
2022-08-07T19:00:04.585Z,1.60
2022-08-07T19:03:38.878Z,1.50
2022-08-07T19:06:53.386Z,1.50
2022-08-07T19:10:10.978Z,1.53
2022-08-07T19:13:27.539Z,1.33
2022-08-07T19:17:07.596Z,1.40
2022-08-07T19:20:30.254Z,1.40
2022-08-07T19:23:58.961Z,1.60
2022-08-07T19:30:54.165Z,1.30
2022-08-07T19:31:06.207Z,1.57
2022-08-07T19:34:15.030Z,1.50
2022-08-07T19:37:56.777Z,1.67
2022-08-07T19:41:06.408Z,1.93
2022-08-07T19:44:21.607Z,1.60
2022-08-07T19:47:36.552Z,1.80
2022-08-07T19:50:53.047Z,1.63
2022-08-07T19:54:31.864Z,1.50
2022-08-07T19:58:02.556Z,1.87
2022-08-07T20:01:09.572Z,1.57
2022-08-07T20:04:31.808Z,1.60
2022-08-07T20:07:50.716Z,1.50
2022-08-07T20:11:01.912Z,1.90
2022-08-07T20:14:20.534Z,1.97
2022-08-07T20:17:29.803Z,1.63
2022-08-07T20:20:36.682Z,1.90
2022-08-07T20:23:54.373Z,2.10
2022-08-07T20:27:03.363Z,1.60
2022-08-07T20:30:11.844Z,1.87
2022-08-07T20:33:24.205Z,1.60
2022-08-07T20:36:51.951Z,1.67
2022-08-07T20:40:05.297Z,1.80
2022-08-07T20:43:33.392Z,1.80
2022-08-07T20:46:43.677Z,2.03
2022-08-07T20:49:59.476Z,1.80
2022-08-07T20:53:08.299Z,1.80
2022-08-07T20:56:25.837Z,1.90
2022-08-07T21:00:07.668Z,2.00
2022-08-07T21:03:06.108Z,2.03
2022-08-07T21:06:25.829Z,1.83
2022-08-07T21:09:53.323Z,1.73
2022-08-07T21:13:08.451Z,1.80
2022-08-07T21:16:17.457Z,2.00
2022-08-07T21:19:32.273Z,1.77
2022-08-07T21:23:07.347Z,1.80
2022-08-07T21:26:23.671Z,1.53
2022-08-07T21:29:41.268Z,2.13
2022-08-07T21:33:03.299Z,2.00
2022-08-07T21:36:32.319Z,1.80
2022-08-07T21:39:55.040Z,1.70
2022-08-07T21:43:07.825Z,2.10
2022-08-07T21:46:32.256Z,1.67
2022-08-07T21:50:02.745Z,1.63
2022-08-07T21:53:16.457Z,1.70
2022-08-07T21:56:39.612Z,2.03
2022-08-07T22:00:08.729Z,1.90
2022-08-07T22:03:31.224Z,2.00
2022-08-07T22:06:49.824Z,2.20
2022-08-07T22:10:03.102Z,2.03
2022-08-07T22:13:13.591Z,1.93
2022-08-07T22:16:45.430Z,1.90
2022-08-07T22:20:23.497Z,2.00
2022-08-07T22:23:40.292Z,2.00
2022-08-07T22:26:54.212Z,2.33
2022-08-07T22:30:12.427Z,2.17
2022-08-07T22:33:52.879Z,2.10
2022-08-07T22:37:19.878Z,1.93
2022-08-07T22:40:30.455Z,2.00
2022-08-07T22:43:42.373Z,1.87
2022-08-07T22:47:24.532Z,2.10
2022-08-07T22:50:48.595Z,1.93
2022-08-07T22:54:18.617Z,2.10
2022-08-07T22:57:53.532Z,2.00
2022-08-07T23:01:18.459Z,2.20
2022-08-07T23:04:57.747Z,1.80
2022-08-07T23:08:55.994Z,2.10
2022-08-07T23:12:34.054Z,1.70
2022-08-07T23:16:05.670Z,1.90
2022-08-07T23:19:51.210Z,1.67
2022-08-07T23:24:06.527Z,1.90
2022-08-07T23:27:33.485Z,2.00
2022-08-07T23:31:06.720Z,1.90
2022-08-07T23:34:47.981Z,2.07
2022-08-07T23:38:19.035Z,2.30
2022-08-07T23:42:02.083Z,2.13
2022-08-07T23:45:33.422Z,2.13
2022-08-07T23:49:23.042Z,2.30
2022-08-07T23:53:01.376Z,2.00
2022-08-07T23:56:11.780Z,2.50
